createdAt,value
2022-09-25T00:02:01.428Z,95380.06
2022-09-25T00:04:29.197Z,95375.50
2022-09-25T00:06:55.757Z,95379.13
2022-09-25T00:09:23.490Z,95380.44
2022-09-25T00:11:50.644Z,95377.47
2022-09-25T00:14:17.257Z,95378.84
2022-09-25T00:16:43.897Z,95380.06
2022-09-25T00:19:37.713Z,95367.25
2022-09-25T00:22:04.259Z,95377.47
2022-09-25T00:24:32.352Z,95364.78
2022-09-25T00:27:00.502Z,95361.78
2022-09-25T00:29:27.090Z,95367.09
2022-09-25T00:31:55.419Z,95373.22
2022-09-25T00:34:21.951Z,95368.56
2022-09-25T00:36:48.502Z,95365.44
2022-09-25T00:39:15.130Z,95371.13
2022-09-25T00:41:41.723Z,95363.97
2022-09-25T00:44:45.849Z,95360.91
2022-09-25T00:47:19.147Z,95355.09
2022-09-25T00:49:47.427Z,95350.72
2022-09-25T00:52:14.500Z,95355.56
2022-09-25T00:54:47.885Z,95353.22
2022-09-25T00:57:19.335Z,95350.59
2022-09-25T00:59:53.640Z,95356.06
2022-09-25T01:02:25.198Z,95338.63
2022-09-25T01:04:52.671Z,95349.09
2022-09-25T01:07:20.180Z,95351.00
2022-09-25T01:09:46.980Z,95344.78
2022-09-25T01:12:13.620Z,95348.31
2022-09-25T01:14:40.685Z,95349.69
2022-09-25T01:17:14.688Z,95344.53
2022-09-25T01:20:00.609Z,95342.44
2022-09-25T01:22:50.232Z,95345.25
2022-09-25T01:25:39.275Z,95337.28
2022-09-25T01:28:35.917Z,95343.78
2022-09-25T01:31:11.341Z,95332.63
2022-09-25T01:33:46.563Z,95340.53
2022-09-25T01:36:36.158Z,95341.81
2022-09-25T01:39:13.576Z,95341.69
2022-09-25T01:42:14.455Z,95339.75
2022-09-25T01:44:50.773Z,95333.75
2022-09-25T01:47:26.523Z,95331.97
2022-09-25T01:49:59.811Z,95329.00
2022-09-25T01:52:35.197Z,95336.38
2022-09-25T01:55:10.481Z,95326.78
2022-09-25T01:57:43.582Z,95328.72
2022-09-25T02:00:14.502Z,95328.00
2022-09-25T02:02:48.324Z,95325.69
2022-09-25T02:05:22.088Z,95317.88
2022-09-25T02:07:55.534Z,95335.91
2022-09-25T02:10:29.128Z,95335.63
2022-09-25T02:13:05.791Z,95343.91
2022-09-25T02:15:37.588Z,95345.16
2022-09-25T02:18:26.752Z,95341.22
2022-09-25T02:21:13.734Z,95344.22
2022-09-25T02:23:49.150Z,95331.38
2022-09-25T02:26:29.406Z,95332.06
2022-09-25T02:28:57.282Z,95330.44
2022-09-25T02:31:31.087Z,95332.59
2022-09-25T02:33:58.436Z,95333.88
2022-09-25T02:36:25.249Z,95326.09
2022-09-25T02:38:54.800Z,95326.56
2022-09-25T02:41:59.017Z,95330.97
2022-09-25T02:44:29.051Z,95326.44
2022-09-25T02:47:01.839Z,95328.59
2022-09-25T02:49:59.450Z,95333.16
2022-09-25T02:52:34.975Z,95332.97
2022-09-25T02:55:12.885Z,95337.31
2022-09-25T02:57:54.078Z,95331.22
2022-09-25T03:00:23.480Z,95332.22
2022-09-25T03:02:56.240Z,95328.63
2022-09-25T03:05:25.102Z,95331.50
2022-09-25T03:08:13.780Z,95327.97
2022-09-25T03:10:41.956Z,95323.34
2022-09-25T03:13:19.149Z,95333.16
2022-09-25T03:15:54.382Z,95327.34
2022-09-25T03:18:21.879Z,95323.72
2022-09-25T03:20:48.518Z,95313.72
2022-09-25T03:23:15.420Z,95322.75
2022-09-25T03:25:45.892Z,95319.97
2022-09-25T03:28:17.413Z,95318.59
2022-09-25T03:30:44.411Z,95324.06
2022-09-25T03:33:12.518Z,95322.44
2022-09-25T03:35:39.833Z,95323.34
2022-09-25T03:38:08.330Z,95319.25
2022-09-25T03:40:34.943Z,95319.69
2022-09-25T03:45:28.976Z,95324.94
2022-09-25T03:47:55.552Z,95317.69
2022-09-25T03:50:22.220Z,95323.72
2022-09-25T03:52:48.807Z,95326.28
2022-09-25T03:55:15.468Z,95322.81
2022-09-25T03:57:42.043Z,95318.94
2022-09-25T04:00:09.752Z,95311.91
2022-09-25T04:02:39.222Z,95308.38
2022-09-25T04:05:06.279Z,95306.00
2022-09-25T04:07:32.893Z,95324.38
2022-09-25T04:09:59.441Z,95314.16
2022-09-25T04:12:26.538Z,95314.59
2022-09-25T04:14:53.869Z,95318.13
2022-09-25T04:17:20.704Z,95317.84
2022-09-25T04:19:47.333Z,95315.41
2022-09-25T04:22:13.857Z,95321.53
2022-09-25T04:24:49.038Z,95305.94
2022-09-25T04:27:22.141Z,95311.19
2022-09-25T04:29:49.343Z,95319.28
2022-09-25T04:32:35.487Z,95325.16
2022-09-25T04:35:02.074Z,95327.06
2022-09-25T04:37:28.931Z,95324.72
2022-09-25T04:39:57.012Z,95333.91
2022-09-25T04:42:24.736Z,95333.66
2022-09-25T04:44:56.351Z,95325.44
2022-09-25T04:47:23.556Z,95329.50
2022-09-25T04:49:51.350Z,95338.56
2022-09-25T04:52:19.961Z,95329.13
2022-09-25T04:54:47.791Z,95332.75
2022-09-25T04:57:27.600Z,95332.75
2022-09-25T04:59:59.627Z,95337.38
2022-09-25T05:02:28.072Z,95341.88
2022-09-25T05:04:55.956Z,95344.34
2022-09-25T05:07:28.005Z,95345.22
2022-09-25T05:10:02.084Z,95336.75
2022-09-25T05:12:32.182Z,95335.13
2022-09-25T05:15:16.310Z,95330.84
2022-09-25T05:17:51.501Z,95338.38
2022-09-25T05:20:38.481Z,95336.72
2022-09-25T05:23:11.787Z,95334.25
2022-09-25T05:25:44.555Z,95342.56
2022-09-25T05:28:29.647Z,95333.66
2022-09-25T05:31:17.022Z,95333.88
2022-09-25T05:33:53.205Z,95333.47
2022-09-25T05:36:30.939Z,95335.88
2022-09-25T05:39:13.554Z,95337.50
2022-09-25T05:42:06.507Z,95344.13
2022-09-25T05:44:35.562Z,95340.91
2022-09-25T05:47:08.395Z,95341.63
2022-09-25T05:49:41.317Z,95341.41
2022-09-25T05:52:12.263Z,95336.31
2022-09-25T05:54:47.527Z,95346.19
2022-09-25T05:57:15.356Z,95336.38
2022-09-25T05:59:42.617Z,95340.88
2022-09-25T06:02:13.953Z,95342.75
2022-09-25T06:04:43.763Z,95336.00
2022-09-25T06:07:14.812Z,95342.13
2022-09-25T06:09:42.772Z,95334.03
2022-09-25T06:12:10.235Z,95335.59
2022-09-25T06:14:37.579Z,95336.78
2022-09-25T06:17:07.021Z,95340.59
2022-09-25T06:19:35.445Z,95344.03
2022-09-25T06:22:10.214Z,95341.69
2022-09-25T06:24:46.466Z,95341.19
2022-09-25T06:30:07.934Z,95342.47
2022-09-25T06:32:45.071Z,95341.44
2022-09-25T06:35:15.605Z,95348.25
2022-09-25T06:37:43.081Z,95346.75
2022-09-25T06:40:10.194Z,95342.22
2022-09-25T06:42:37.384Z,95344.03
2022-09-25T06:45:06.277Z,95353.69
2022-09-25T06:47:45.319Z,95354.94
2022-09-25T06:50:16.060Z,95357.09
2022-09-25T06:52:44.850Z,95359.13
2022-09-25T06:55:12.029Z,95371.44
2022-09-25T06:57:38.794Z,95363.56
2022-09-25T07:00:06.299Z,95359.22
2022-09-25T07:02:51.787Z,95355.22
2022-09-25T07:05:18.923Z,95353.53
2022-09-25T07:07:46.730Z,95357.53
2022-09-25T07:10:14.117Z,95352.88
2022-09-25T07:12:41.512Z,95361.75
2022-09-25T07:15:09.376Z,95356.28
2022-09-25T07:17:36.377Z,95364.13
2022-09-25T07:20:03.660Z,95356.84
2022-09-25T07:22:30.361Z,95355.22
2022-09-25T07:24:57.320Z,95363.06
2022-09-25T07:27:24.391Z,95359.09
2022-09-25T07:29:52.514Z,95355.56
2022-09-25T07:32:20.696Z,95353.19
2022-09-25T07:34:50.158Z,95348.00
2022-09-25T07:37:18.170Z,95349.22
2022-09-25T07:39:44.964Z,95356.19
2022-09-25T07:42:12.003Z,95359.81
2022-09-25T07:44:42.445Z,95360.44
2022-09-25T07:47:15.374Z,95368.19
2022-09-25T07:49:44.020Z,95370.22
2022-09-25T07:52:10.893Z,95359.13
2022-09-25T07:54:37.790Z,95362.53
2022-09-25T07:57:04.450Z,95365.38
2022-09-25T07:59:31.275Z,95364.69
2022-09-25T08:01:58.791Z,95368.75
2022-09-25T08:04:25.540Z,95376.94
2022-09-25T08:06:52.279Z,95371.00
2022-09-25T08:09:18.799Z,95372.16
2022-09-25T08:11:46.399Z,95372.06
2022-09-25T08:14:17.033Z,95375.28
2022-09-25T08:16:44.790Z,95375.28
2022-09-25T08:19:13.754Z,95367.19
2022-09-25T08:21:41.029Z,95369.88
2022-09-25T08:24:07.803Z,95371.69
2022-09-25T08:26:34.466Z,95375.09
2022-09-25T08:29:01.268Z,95365.16
2022-09-25T08:31:28.095Z,95360.59
2022-09-25T08:33:54.856Z,95360.13
2022-09-25T08:36:22.342Z,95359.03
2022-09-25T08:38:49.444Z,95358.34
2022-09-25T08:41:29.374Z,95360.75
2022-09-25T08:44:26.225Z,95361.59
2022-09-25T08:47:37.632Z,95369.22
2022-09-25T08:50:22.614Z,95363.53
2022-09-25T08:53:05.196Z,95363.53
2022-09-25T08:55:57.127Z,95360.03
2022-09-25T08:58:29.692Z,95363.50
2022-09-25T09:01:01.757Z,95356.69
2022-09-25T09:03:30.835Z,95361.53
2022-09-25T09:06:05.891Z,95351.13
2022-09-25T09:08:39.080Z,95347.78
2022-09-25T09:11:21.096Z,95349.75
2022-09-25T09:14:05.245Z,95340.44
2022-09-25T09:16:49.989Z,95343.59
2022-09-25T09:19:17.248Z,95349.25
2022-09-25T09:22:13.909Z,95342.09
2022-09-25T09:25:00.020Z,95344.53
2022-09-25T09:27:49.163Z,95344.69
2022-09-25T09:30:40.601Z,95348.81
2022-09-25T09:33:17.507Z,95355.00
2022-09-25T09:36:37.986Z,95352.19
2022-09-25T09:39:17.872Z,95352.28
2022-09-25T09:45:30.333Z,95342.22
2022-09-25T09:49:00.549Z,95340.03
2022-09-25T09:51:59.772Z,95336.50
2022-09-25T09:54:51.667Z,95340.25
2022-09-25T09:57:34.589Z,95341.19
2022-09-25T10:00:15.937Z,95339.75
2022-09-25T10:03:03.251Z,95336.44
2022-09-25T10:05:46.843Z,95336.19
2022-09-25T10:08:15.334Z,95337.34
2022-09-25T10:10:45.856Z,95343.38
2022-09-25T10:13:33.041Z,95330.25
2022-09-25T10:16:29.122Z,95339.91
2022-09-25T10:19:28.156Z,95339.72
2022-09-25T10:22:13.615Z,95337.34
2022-09-25T10:24:51.709Z,95330.84
2022-09-25T10:27:24.529Z,95332.56
2022-09-25T10:30:09.622Z,95332.44
2022-09-25T10:32:58.154Z,95330.41
2022-09-25T10:35:30.128Z,95330.38
2022-09-25T10:38:02.198Z,95329.44
2022-09-25T10:40:35.137Z,95334.69
2022-09-25T10:43:05.650Z,95333.50
2022-09-25T10:45:35.359Z,95339.41
2022-09-25T10:48:40.267Z,95337.53
2022-09-25T10:51:10.011Z,95338.25
2022-09-25T10:53:37.135Z,95329.09
2022-09-25T10:56:07.495Z,95335.38
2022-09-25T10:58:40.383Z,95341.19
2022-09-25T11:01:13.650Z,95346.94
2022-09-25T11:03:57.143Z,95348.19
2022-09-25T11:06:30.726Z,95355.75
2022-09-25T11:09:18.138Z,95344.47
2022-09-25T11:11:47.199Z,95348.16
2022-09-25T11:14:32.432Z,95348.50
2022-09-25T11:17:00.983Z,95351.59
2022-09-25T11:19:30.423Z,95353.59
2022-09-25T11:22:25.986Z,95348.34
2022-09-25T11:25:31.421Z,95354.50
2022-09-25T11:28:23.872Z,95351.38
2022-09-25T11:31:05.412Z,95348.56
2022-09-25T11:33:45.741Z,95349.88
2022-09-25T11:36:25.239Z,95339.94
2022-09-25T11:39:14.379Z,95338.81
2022-09-25T11:42:00.799Z,95333.91
2022-09-25T11:45:03.339Z,95336.44
2022-09-25T11:47:42.378Z,95330.88
2022-09-25T11:50:20.527Z,95339.72
2022-09-25T11:53:33.903Z,95335.00
2022-09-25T11:56:32.988Z,95342.44
2022-09-25T11:59:38.553Z,95332.31
2022-09-25T12:02:42.794Z,95335.50
2022-09-25T12:05:19.166Z,95329.56
2022-09-25T12:08:05.604Z,95326.00
2022-09-25T12:10:50.508Z,95322.94
2022-09-25T12:13:55.130Z,95320.47
2022-09-25T12:16:43.477Z,95321.66
2022-09-25T12:19:13.562Z,95314.94
2022-09-25T12:22:06.660Z,95316.53
2022-09-25T12:24:49.702Z,95323.13
2022-09-25T12:27:35.561Z,95317.91
2022-09-25T12:30:26.749Z,95316.31
2022-09-25T12:33:14.379Z,95310.41
2022-09-25T12:35:50.017Z,95301.22
2022-09-25T12:38:35.210Z,95294.13
2022-09-25T12:41:17.815Z,95301.84
2022-09-25T12:44:01.760Z,95300.28
2022-09-25T12:46:37.842Z,95304.38
2022-09-25T12:49:11.074Z,95303.22
2022-09-25T12:51:53.215Z,95306.16
2022-09-25T12:54:39.323Z,95305.66
2022-09-25T12:57:35.149Z,95299.81
2022-09-25T13:00:29.069Z,95303.41
2022-09-25T13:03:12.170Z,95303.09
2022-09-25T13:05:53.873Z,95305.28
2022-09-25T13:08:29.511Z,95300.47
2022-09-25T13:11:04.904Z,95297.56
2022-09-25T13:13:37.943Z,95295.63
2022-09-25T13:16:07.289Z,95297.91
2022-09-25T13:18:35.896Z,95292.59
2022-09-25T13:21:29.268Z,95292.84
2022-09-25T13:23:56.676Z,95296.94
2022-09-25T13:26:37.251Z,95292.69
2022-09-25T13:29:23.422Z,95297.72
2022-09-25T13:31:51.061Z,95290.63
2022-09-25T13:34:24.349Z,95293.97
2022-09-25T13:36:57.487Z,95283.59
2022-09-25T13:39:59.109Z,95286.75
2022-09-25T13:42:32.240Z,95284.81
2022-09-25T13:45:17.665Z,95288.75
2022-09-25T13:48:11.898Z,95291.38
2022-09-25T13:50:45.172Z,95289.09
2022-09-25T13:53:25.959Z,95288.28
2022-09-25T13:55:55.670Z,95294.75
2022-09-25T13:58:28.397Z,95296.91
2022-09-25T14:00:58.509Z,95295.97
2022-09-25T14:03:32.117Z,95291.94
2022-09-25T14:06:00.774Z,95294.50
2022-09-25T14:08:31.184Z,95285.41
2022-09-25T14:11:01.343Z,95276.84
2022-09-25T14:13:31.010Z,95278.16
2022-09-25T14:16:03.550Z,95275.56
2022-09-25T14:18:36.330Z,95274.72
2022-09-25T14:21:06.410Z,95279.00
2022-09-25T14:23:47.702Z,95282.00
2022-09-25T14:26:27.871Z,95281.94
2022-09-25T14:28:56.519Z,95284.00
2022-09-25T14:31:23.078Z,95285.41
2022-09-25T14:34:17.623Z,95283.25
2022-09-25T14:37:24.515Z,95283.63
2022-09-25T14:40:17.688Z,95279.47
2022-09-25T14:43:03.205Z,95282.78
2022-09-25T14:45:48.509Z,95274.09
2022-09-25T14:48:20.960Z,95276.50
2022-09-25T14:50:51.699Z,95280.13
2022-09-25T14:53:28.219Z,95276.84
2022-09-25T14:55:58.176Z,95274.59
2022-09-25T14:58:33.687Z,95274.63
2022-09-25T15:01:32.751Z,95266.00
2022-09-25T15:04:04.631Z,95266.25
2022-09-25T15:06:34.194Z,95262.38
2022-09-25T15:09:38.185Z,95267.13
2022-09-25T15:12:55.541Z,95266.53
2022-09-25T15:15:22.178Z,95268.91
2022-09-25T15:17:53.005Z,95261.88
2022-09-25T15:20:24.843Z,95267.03
2022-09-25T15:22:58.072Z,95265.38
2022-09-25T15:25:54.663Z,95264.84
2022-09-25T15:28:25.321Z,95265.22
2022-09-25T15:31:00.474Z,95267.75
2022-09-25T15:33:34.075Z,95264.78
2022-09-25T15:36:08.594Z,95258.94
2022-09-25T15:38:38.865Z,95270.25
2022-09-25T15:41:14.648Z,95263.78
2022-09-25T15:43:41.389Z,95260.94
2022-09-25T15:46:12.060Z,95260.47
2022-09-25T15:48:40.390Z,95262.78
2022-09-25T15:51:19.407Z,95258.47
2022-09-25T15:53:56.582Z,95261.31
2022-09-25T15:56:27.870Z,95252.13
2022-09-25T15:59:00.776Z,95256.25
2022-09-25T16:01:49.364Z,95251.28
2022-09-25T16:04:47.668Z,95252.88
2022-09-25T16:07:26.617Z,95253.63
2022-09-25T16:10:03.685Z,95263.56
2022-09-25T16:12:51.788Z,95260.16
2022-09-25T16:15:26.412Z,95260.16
2022-09-25T16:18:04.393Z,95262.78
2022-09-25T16:20:37.722Z,95259.06
2022-09-25T16:23:07.028Z,95259.22
2022-09-25T16:25:43.311Z,95272.53
2022-09-25T16:28:16.013Z,95271.22
2022-09-25T16:30:53.018Z,95265.72
2022-09-25T16:33:31.376Z,95272.84
2022-09-25T16:36:14.445Z,95266.63
2022-09-25T16:39:05.986Z,95266.13
2022-09-25T16:41:35.991Z,95274.75
2022-09-25T16:44:18.897Z,95275.78
2022-09-25T16:46:52.485Z,95277.31
2022-09-25T16:49:22.504Z,95280.03
2022-09-25T16:51:50.950Z,95280.75
2022-09-25T16:54:19.781Z,95280.38
2022-09-25T16:56:48.260Z,95281.31
2022-09-25T16:59:22.367Z,95273.72
2022-09-25T17:01:52.824Z,95281.31
2022-09-25T17:04:28.614Z,95280.59
2022-09-25T17:06:58.058Z,95280.75
2022-09-25T17:09:27.443Z,95286.88
2022-09-25T17:12:00.715Z,95293.78
2022-09-25T17:14:29.230Z,95304.59
2022-09-25T17:17:00.112Z,95309.50
2022-09-25T17:19:28.055Z,95301.69
2022-09-25T17:21:56.087Z,95319.06
2022-09-25T17:24:26.733Z,95310.53
2022-09-25T17:26:54.510Z,95314.13
2022-09-25T17:29:21.869Z,95309.44
2022-09-25T17:31:49.060Z,95308.19
2022-09-25T17:34:24.921Z,95309.78
2022-09-25T17:36:52.257Z,95311.28
2022-09-25T17:39:18.840Z,95319.09
2022-09-25T17:41:45.549Z,95318.13
2022-09-25T17:44:20.605Z,95321.41
2022-09-25T17:46:47.248Z,95319.53
2022-09-25T17:49:14.022Z,95323.41
2022-09-25T17:51:40.934Z,95325.75
2022-09-25T17:54:08.047Z,95323.56
2022-09-25T17:56:34.957Z,95328.53
2022-09-25T17:59:02.316Z,95331.53
2022-09-25T18:01:36.709Z,95329.09
2022-09-25T18:04:23.931Z,95336.28
2022-09-25T18:06:51.330Z,95331.00
2022-09-25T18:09:17.916Z,95338.75
2022-09-25T18:11:44.823Z,95329.59
2022-09-25T18:14:13.167Z,95333.91
2022-09-25T18:16:42.578Z,95334.28
2022-09-25T18:19:37.052Z,95334.50
2022-09-25T18:22:21.310Z,95343.84
2022-09-25T18:24:52.697Z,95346.19
2022-09-25T18:27:19.947Z,95344.38
2022-09-25T18:29:47.264Z,95347.19
2022-09-25T18:32:14.507Z,95344.56
2022-09-25T18:34:41.948Z,95347.84
2022-09-25T18:37:09.103Z,95353.66
2022-09-25T18:39:35.754Z,95356.94
2022-09-25T18:42:02.472Z,95359.56
2022-09-25T18:44:29.119Z,95356.22
2022-09-25T18:46:55.994Z,95360.34
2022-09-25T18:49:26.131Z,95355.34
2022-09-25T18:51:52.697Z,95354.09
2022-09-25T18:54:20.363Z,95354.88
2022-09-25T18:56:47.051Z,95355.22
2022-09-25T18:59:14.134Z,95361.38
2022-09-25T19:01:41.101Z,95368.13
2022-09-25T19:04:08.201Z,95372.84
2022-09-25T19:06:35.653Z,95369.03
2022-09-25T19:09:04.545Z,95379.19
2022-09-25T19:11:31.146Z,95376.84
2022-09-25T19:13:57.724Z,95378.81
2022-09-25T19:16:24.408Z,95380.94
2022-09-25T19:18:51.242Z,95375.88
2022-09-25T19:21:22.860Z,95380.69
2022-09-25T19:23:50.110Z,95385.28
2022-09-25T19:26:20.970Z,95384.47
2022-09-25T19:28:47.890Z,95384.97
2022-09-25T19:31:19.796Z,95385.69
2022-09-25T19:33:46.966Z,95389.53
2022-09-25T19:36:19.509Z,95388.53
2022-09-25T19:38:47.029Z,95386.56
2022-09-25T19:41:19.201Z,95392.78
2022-09-25T19:43:45.858Z,95397.28
2022-09-25T19:46:14.779Z,95396.25
2022-09-25T19:48:41.515Z,95401.75
2022-09-25T19:51:08.188Z,95399.47
2022-09-25T19:53:36.416Z,95398.13
2022-09-25T19:56:03.649Z,95396.94
2022-09-25T19:58:36.289Z,95399.56
2022-09-25T20:01:03.362Z,95403.72
2022-09-25T20:03:30.039Z,95411.22
2022-09-25T20:05:56.608Z,95399.97
2022-09-25T20:08:23.252Z,95407.09
2022-09-25T20:10:49.841Z,95402.63
2022-09-25T20:13:19.091Z,95405.94
2022-09-25T20:15:47.955Z,95404.09
2022-09-25T20:18:16.277Z,95399.75
2022-09-25T20:20:43.483Z,95400.88
2022-09-25T20:23:10.090Z,95396.38
2022-09-25T20:25:37.266Z,95398.84
2022-09-25T20:28:03.907Z,95404.66
2022-09-25T20:30:35.820Z,95402.56
2022-09-25T20:33:04.717Z,95404.28
2022-09-25T20:35:31.309Z,95401.31
2022-09-25T20:37:57.924Z,95399.72
2022-09-25T20:40:30.665Z,95393.50
2022-09-25T20:42:57.673Z,95393.72
2022-09-25T20:45:24.317Z,95400.00
2022-09-25T20:47:55.159Z,95395.94
2022-09-25T20:50:21.962Z,95395.44
2022-09-25T20:52:48.717Z,95396.25
2022-09-25T20:55:16.048Z,95400.84
2022-09-25T20:57:42.585Z,95404.25
2022-09-25T21:00:09.895Z,95394.88
2022-09-25T21:02:36.567Z,95397.91
2022-09-25T21:05:03.305Z,95405.75
2022-09-25T21:07:30.067Z,95398.91
2022-09-25T21:09:56.985Z,95400.88
2022-09-25T21:12:23.590Z,95395.88
2022-09-25T21:14:50.436Z,95394.81
2022-09-25T21:17:17.287Z,95399.56
2022-09-25T21:19:44.128Z,95404.97
2022-09-25T21:22:10.885Z,95398.78
2022-09-25T21:24:37.757Z,95393.03
2022-09-25T21:27:04.661Z,95397.38
2022-09-25T21:29:31.955Z,95389.91
2022-09-25T21:31:58.671Z,95392.25
2022-09-25T21:34:26.446Z,95389.97
2022-09-25T21:36:53.143Z,95398.00
2022-09-25T21:39:21.211Z,95397.66
2022-09-25T21:41:48.364Z,95393.56
2022-09-25T21:44:17.071Z,95390.06
2022-09-25T21:46:44.120Z,95386.91
2022-09-25T21:49:17.218Z,95388.78
2022-09-25T21:51:45.389Z,95388.34
2022-09-25T21:54:13.572Z,95388.31
2022-09-25T21:56:42.880Z,95389.56
2022-09-25T21:59:09.856Z,95386.53
2022-09-25T22:01:38.619Z,95392.53
2022-09-25T22:04:06.730Z,95386.56
2022-09-25T22:06:36.993Z,95396.53
2022-09-25T22:09:09.918Z,95396.91
2022-09-25T22:11:37.539Z,95393.81
2022-09-25T22:14:04.986Z,95395.75
2022-09-25T22:16:36.975Z,95401.00
2022-09-25T22:19:13.608Z,95397.38
2022-09-25T22:21:41.341Z,95396.28
2022-09-25T22:24:08.965Z,95397.81
2022-09-25T22:26:38.859Z,95402.53
2022-09-25T22:29:06.413Z,95401.16
2022-09-25T22:31:34.952Z,95401.25
2022-09-25T22:34:07.232Z,95395.44
2022-09-25T22:36:36.288Z,95389.09
2022-09-25T22:39:04.493Z,95384.22
2022-09-25T22:41:31.511Z,95381.78
2022-09-25T22:44:00.634Z,95378.09
2022-09-25T22:46:28.275Z,95377.06
2022-09-25T22:48:54.978Z,95386.88
2022-09-25T22:51:24.202Z,95380.88
2022-09-25T22:53:52.043Z,95382.28
2022-09-25T22:56:23.203Z,95390.66
2022-09-25T22:58:55.518Z,95390.06
2022-09-25T23:01:29.446Z,95382.13
2022-09-25T23:04:00.989Z,95379.50
2022-09-25T23:06:29.215Z,95377.91
2022-09-25T23:08:58.619Z,95382.47
2022-09-25T23:11:26.644Z,95373.00
2022-09-25T23:13:59.314Z,95378.16
2022-09-25T23:16:26.597Z,95378.09
2022-09-25T23:18:55.355Z,95376.41
2022-09-25T23:21:21.995Z,95373.34
2022-09-25T23:23:48.603Z,95370.97
2022-09-25T23:26:15.348Z,95365.94
2022-09-25T23:28:42.030Z,95361.97
2022-09-25T23:31:15.408Z,95357.28
2022-09-25T23:33:43.287Z,95350.50
2022-09-25T23:36:14.304Z,95343.00
2022-09-25T23:38:41.036Z,95338.88
2022-09-25T23:41:19.556Z,95334.56
2022-09-25T23:43:47.726Z,95333.81
2022-09-25T23:46:15.884Z,95329.50
2022-09-25T23:48:43.318Z,95323.69
2022-09-25T23:51:10.588Z,95326.72
2022-09-25T23:53:37.839Z,95327.41
2022-09-25T23:56:08.097Z,95329.91
2022-09-25T23:58:34.968Z,95318.84
